sensor_id;sensor_type;location;lat;lon;timestamp;P1;durP1;ratioP1;P2;durP2;ratioP2
6626;SDS011;3349;49.830;8.748;2023-03-01T00:02:15;18.27;;;11.27;;
6626;SDS011;3349;49.830;8.748;2023-03-01T00:04:41;22.37;;;12.23;;
6626;SDS011;3349;49.830;8.748;2023-03-01T00:07:10;18.97;;;11.53;;
6626;SDS011;3349;49.830;8.748;2023-03-01T00:09:37;21.20;;;12.23;;
6626;SDS011;3349;49.830;8.748;2023-03-01T00:12:05;19.23;;;11.23;;
6626;SDS011;3349;49.830;8.748;2023-03-01T00:14:32;19.03;;;11.10;;
6626;SDS011;3349;49.830;8.748;2023-03-01T00:16:59;19.13;;;11.37;;
6626;SDS011;3349;49.830;8.748;2023-03-01T00:19:26;16.87;;;10.40;;
6626;SDS011;3349;49.830;8.748;2023-03-01T00:21:53;22.33;;;11.67;;
6626;SDS011;3349;49.830;8.748;2023-03-01T00:24:21;19.50;;;12.20;;
6626;SDS011;3349;49.830;8.748;2023-03-01T00:26:48;15.87;;;9.97;;
6626;SDS011;3349;49.830;8.748;2023-03-01T00:29:18;17.40;;;11.33;;
6626;SDS011;3349;49.830;8.748;2023-03-01T00:31:45;17.03;;;10.70;;
6626;SDS011;3349;49.830;8.748;2023-03-01T00:34:11;16.87;;;10.40;;
6626;SDS011;3349;49.830;8.748;2023-03-01T00:36:38;14.57;;;10.30;;
6626;SDS011;3349;49.830;8.748;2023-03-01T00:39:07;17.43;;;10.53;;
6626;SDS011;3349;49.830;8.748;2023-03-01T00:41:39;19.30;;;11.67;;
6626;SDS011;3349;49.830;8.748;2023-03-01T00:44:19;18.97;;;11.83;;
6626;SDS011;3349;49.830;8.748;2023-03-01T00:46:46;18.80;;;12.30;;
6626;SDS011;3349;49.830;8.748;2023-03-01T00:49:12;19.97;;;11.03;;
6626;SDS011;3349;49.830;8.748;2023-03-01T00:51:39;18.27;;;12.03;;
6626;SDS011;3349;49.830;8.748;2023-03-01T00:54:07;14.80;;;10.20;;
6626;SDS011;3349;49.830;8.748;2023-03-01T00:56:35;16.43;;;10.37;;
6626;SDS011;3349;49.830;8.748;2023-03-01T00:59:03;16.93;;;11.07;;
6626;SDS011;3349;49.830;8.748;2023-03-01T01:01:30;21.70;;;12.30;;
6626;SDS011;3349;49.830;8.748;2023-03-01T01:03:58;22.47;;;13.33;;
6626;SDS011;3349;49.830;8.748;2023-03-01T01:06:27;24.17;;;14.23;;
6626;SDS011;3349;49.830;8.748;2023-03-01T01:08:55;26.07;;;14.83;;
6626;SDS011;3349;49.830;8.748;2023-03-01T01:11:23;31.43;;;15.53;;
6626;SDS011;3349;49.830;8.748;2023-03-01T01:13:52;28.17;;;13.90;;
6626;SDS011;3349;49.830;8.748;2023-03-01T01:16:22;23.57;;;14.13;;
6626;SDS011;3349;49.830;8.748;2023-03-01T01:18:50;20.30;;;11.47;;
6626;SDS011;3349;49.830;8.748;2023-03-01T01:21:20;16.23;;;10.63;;
6626;SDS011;3349;49.830;8.748;2023-03-01T01:23:48;19.50;;;10.93;;
6626;SDS011;3349;49.830;8.748;2023-03-01T01:26:16;19.23;;;11.90;;
6626;SDS011;3349;49.830;8.748;2023-03-01T01:28:45;14.47;;;10.80;;
6626;SDS011;3349;49.830;8.748;2023-03-01T01:31:13;20.60;;;12.43;;
6626;SDS011;3349;49.830;8.748;2023-03-01T01:33:41;23.70;;;14.47;;
6626;SDS011;3349;49.830;8.748;2023-03-01T01:36:08;34.10;;;17.13;;
6626;SDS011;3349;49.830;8.748;2023-03-01T01:38:35;26.00;;;14.73;;
6626;SDS011;3349;49.830;8.748;2023-03-01T01:41:03;29.80;;;15.70;;
6626;SDS011;3349;49.830;8.748;2023-03-01T01:43:33;29.63;;;16.13;;
6626;SDS011;3349;49.830;8.748;2023-03-01T01:46:02;24.70;;;13.50;;
6626;SDS011;3349;49.830;8.748;2023-03-01T01:48:34;19.97;;;11.83;;
6626;SDS011;3349;49.830;8.748;2023-03-01T01:51:09;19.00;;;11.10;;
6626;SDS011;3349;49.830;8.748;2023-03-01T01:53:38;15.83;;;10.97;;
6626;SDS011;3349;49.830;8.748;2023-03-01T01:56:06;19.83;;;12.73;;
6626;SDS011;3349;49.830;8.748;2023-03-01T01:58:36;19.13;;;11.50;;
6626;SDS011;3349;49.830;8.748;2023-03-01T02:01:04;20.23;;;11.83;;
6626;SDS011;3349;49.830;8.748;2023-03-01T02:03:32;20.90;;;12.40;;
6626;SDS011;3349;49.830;8.748;2023-03-01T02:06:03;19.37;;;12.50;;
6626;SDS011;3349;49.830;8.748;2023-03-01T02:08:35;25.53;;;14.27;;
6626;SDS011;3349;49.830;8.748;2023-03-01T02:11:04;23.33;;;13.67;;
6626;SDS011;3349;49.830;8.748;2023-03-01T02:13:32;23.87;;;13.27;;
6626;SDS011;3349;49.830;8.748;2023-03-01T02:15:59;29.97;;;16.80;;
6626;SDS011;3349;49.830;8.748;2023-03-01T02:18:29;26.23;;;15.00;;
6626;SDS011;3349;49.830;8.748;2023-03-01T02:21:00;22.63;;;14.07;;
6626;SDS011;3349;49.830;8.748;2023-03-01T02:23:35;24.97;;;14.20;;
6626;SDS011;3349;49.830;8.748;2023-03-01T02:26:04;19.10;;;12.27;;
6626;SDS011;3349;49.830;8.748;2023-03-01T02:28:36;18.90;;;11.20;;
6626;SDS011;3349;49.830;8.748;2023-03-01T02:31:03;17.13;;;11.27;;
6626;SDS011;3349;49.830;8.748;2023-03-01T02:33:48;20.03;;;11.27;;
6626;SDS011;3349;49.830;8.748;2023-03-01T02:36:17;19.67;;;11.97;;
6626;SDS011;3349;49.830;8.748;2023-03-01T02:38:46;20.67;;;11.83;;
6626;SDS011;3349;49.830;8.748;2023-03-01T02:41:15;18.07;;;11.50;;
6626;SDS011;3349;49.830;8.748;2023-03-01T02:43:44;19.50;;;11.20;;
6626;SDS011;3349;49.830;8.748;2023-03-01T02:46:14;19.13;;;12.10;;
6626;SDS011;3349;49.830;8.748;2023-03-01T02:48:43;16.40;;;11.77;;
6626;SDS011;3349;49.830;8.748;2023-03-01T02:51:17;17.13;;;11.27;;
6626;SDS011;3349;49.830;8.748;2023-03-01T02:54:05;20.03;;;12.23;;
6626;SDS011;3349;49.830;8.748;2023-03-01T02:56:38;19.07;;;11.33;;
6626;SDS011;3349;49.830;8.748;2023-03-01T02:59:06;19.33;;;11.50;;
6626;SDS011;3349;49.830;8.748;2023-03-01T03:01:34;20.47;;;12.27;;
6626;SDS011;3349;49.830;8.748;2023-03-01T03:04:03;19.40;;;12.30;;
6626;SDS011;3349;49.830;8.748;2023-03-01T03:06:30;20.27;;;11.67;;
6626;SDS011;3349;49.830;8.748;2023-03-01T03:08:57;17.13;;;11.60;;
6626;SDS011;3349;49.830;8.748;2023-03-01T03:11:24;18.87;;;11.73;;
6626;SDS011;3349;49.830;8.748;2023-03-01T03:13:52;18.23;;;12.03;;
6626;SDS011;3349;49.830;8.748;2023-03-01T03:16:20;19.10;;;11.57;;
6626;SDS011;3349;49.830;8.748;2023-03-01T03:18:47;18.27;;;11.43;;
6626;SDS011;3349;49.830;8.748;2023-03-01T03:21:14;18.13;;;11.57;;
6626;SDS011;3349;49.830;8.748;2023-03-01T03:23:42;17.40;;;11.63;;
6626;SDS011;3349;49.830;8.748;2023-03-01T03:26:09;19.27;;;11.50;;
6626;SDS011;3349;49.830;8.748;2023-03-01T03:28:38;17.27;;;11.17;;
6626;SDS011;3349;49.830;8.748;2023-03-01T03:31:05;21.60;;;11.30;;
6626;SDS011;3349;49.830;8.748;2023-03-01T03:33:34;20.40;;;11.60;;
6626;SDS011;3349;49.830;8.748;2023-03-01T03:36:01;17.33;;;11.63;;
6626;SDS011;3349;49.830;8.748;2023-03-01T03:38:28;18.60;;;12.03;;
6626;SDS011;3349;49.830;8.748;2023-03-01T03:40:59;20.50;;;11.87;;
6626;SDS011;3349;49.830;8.748;2023-03-01T03:43:27;17.13;;;11.10;;
6626;SDS011;3349;49.830;8.748;2023-03-01T03:45:55;18.77;;;11.97;;
6626;SDS011;3349;49.830;8.748;2023-03-01T03:48:22;20.83;;;11.83;;
6626;SDS011;3349;49.830;8.748;2023-03-01T03:50:52;22.03;;;14.07;;
6626;SDS011;3349;49.830;8.748;2023-03-01T03:53:20;26.30;;;14.30;;
6626;SDS011;3349;49.830;8.748;2023-03-01T03:55:48;27.03;;;16.13;;
6626;SDS011;3349;49.830;8.748;2023-03-01T03:58:17;21.70;;;14.07;;
6626;SDS011;3349;49.830;8.748;2023-03-01T04:00:46;17.63;;;11.63;;
6626;SDS011;3349;49.830;8.748;2023-03-01T04:03:14;19.70;;;12.27;;
6626;SDS011;3349;49.830;8.748;2023-03-01T04:05:43;20.10;;;12.07;;
6626;SDS011;3349;49.830;8.748;2023-03-01T04:08:12;23.03;;;12.53;;
6626;SDS011;3349;49.830;8.748;2023-03-01T04:10:39;18.50;;;12.13;;
6626;SDS011;3349;49.830;8.748;2023-03-01T04:13:09;18.90;;;12.50;;
6626;SDS011;3349;49.830;8.748;2023-03-01T04:15:38;20.90;;;12.67;;
6626;SDS011;3349;49.830;8.748;2023-03-01T04:18:06;21.07;;;12.27;;
6626;SDS011;3349;49.830;8.748;2023-03-01T04:20:34;16.50;;;10.93;;
6626;SDS011;3349;49.830;8.748;2023-03-01T04:23:04;19.37;;;12.40;;
6626;SDS011;3349;49.830;8.748;2023-03-01T04:25:39;18.43;;;12.40;;
6626;SDS011;3349;49.830;8.748;2023-03-01T04:28:08;18.97;;;11.63;;
6626;SDS011;3349;49.830;8.748;2023-03-01T04:30:36;15.87;;;11.67;;
6626;SDS011;3349;49.830;8.748;2023-03-01T04:33:04;20.67;;;12.30;;
6626;SDS011;3349;49.830;8.748;2023-03-01T04:35:32;17.57;;;11.47;;
6626;SDS011;3349;49.830;8.748;2023-03-01T04:37:59;21.70;;;12.60;;
6626;SDS011;3349;49.830;8.748;2023-03-01T04:40:26;18.77;;;11.90;;
6626;SDS011;3349;49.830;8.748;2023-03-01T04:42:54;18.47;;;12.00;;
6626;SDS011;3349;49.830;8.748;2023-03-01T04:45:20;21.07;;;12.73;;
6626;SDS011;3349;49.830;8.748;2023-03-01T04:47:47;19.80;;;11.80;;
6626;SDS011;3349;49.830;8.748;2023-03-01T04:50:15;18.90;;;11.80;;
6626;SDS011;3349;49.830;8.748;2023-03-01T04:52:45;19.40;;;12.30;;
6626;SDS011;3349;49.830;8.748;2023-03-01T04:55:12;19.97;;;12.43;;
6626;SDS011;3349;49.830;8.748;2023-03-01T04:57:39;23.87;;;12.20;;
6626;SDS011;3349;49.830;8.748;2023-03-01T05:00:10;19.70;;;12.50;;
6626;SDS011;3349;49.830;8.748;2023-03-01T05:02:46;19.90;;;12.63;;
6626;SDS011;3349;49.830;8.748;2023-03-01T05:05:18;21.23;;;12.67;;
6626;SDS011;3349;49.830;8.748;2023-03-01T05:07:46;18.67;;;13.50;;
6626;SDS011;3349;49.830;8.748;2023-03-01T05:10:12;21.17;;;12.03;;
6626;SDS011;3349;49.830;8.748;2023-03-01T05:12:39;20.23;;;12.23;;
6626;SDS011;3349;49.830;8.748;2023-03-01T05:15:08;18.93;;;12.80;;
6626;SDS011;3349;49.830;8.748;2023-03-01T05:17:35;21.70;;;12.13;;
6626;SDS011;3349;49.830;8.748;2023-03-01T05:20:02;19.40;;;12.57;;
6626;SDS011;3349;49.830;8.748;2023-03-01T05:22:33;21.07;;;13.37;;
6626;SDS011;3349;49.830;8.748;2023-03-01T05:25:00;19.23;;;12.67;;
6626;SDS011;3349;49.830;8.748;2023-03-01T05:27:27;19.83;;;13.33;;
6626;SDS011;3349;49.830;8.748;2023-03-01T05:29:54;19.43;;;12.73;;
6626;SDS011;3349;49.830;8.748;2023-03-01T05:32:22;19.10;;;13.83;;
6626;SDS011;3349;49.830;8.748;2023-03-01T05:34:49;21.63;;;13.13;;
6626;SDS011;3349;49.830;8.748;2023-03-01T05:37:17;19.87;;;13.00;;
6626;SDS011;3349;49.830;8.748;2023-03-01T05:39:44;22.17;;;12.93;;
6626;SDS011;3349;49.830;8.748;2023-03-01T05:42:11;19.73;;;13.50;;
6626;SDS011;3349;49.830;8.748;2023-03-01T05:44:37;20.47;;;13.40;;
6626;SDS011;3349;49.830;8.748;2023-03-01T05:47:04;20.70;;;14.00;;
6626;SDS011;3349;49.830;8.748;2023-03-01T05:49:32;20.70;;;13.70;;
6626;SDS011;3349;49.830;8.748;2023-03-01T05:51:59;26.63;;;13.60;;
6626;SDS011;3349;49.830;8.748;2023-03-01T05:54:26;21.50;;;13.50;;
6626;SDS011;3349;49.830;8.748;2023-03-01T05:56:53;20.67;;;13.20;;
6626;SDS011;3349;49.830;8.748;2023-03-01T05:59:19;19.83;;;12.90;;
6626;SDS011;3349;49.830;8.748;2023-03-01T06:01:46;20.33;;;13.13;;
6626;SDS011;3349;49.830;8.748;2023-03-01T06:04:13;22.03;;;13.67;;
6626;SDS011;3349;49.830;8.748;2023-03-01T06:06:41;26.17;;;15.50;;
6626;SDS011;3349;49.830;8.748;2023-03-01T06:09:07;21.57;;;13.67;;
6626;SDS011;3349;49.830;8.748;2023-03-01T06:11:34;21.10;;;14.23;;
6626;SDS011;3349;49.830;8.748;2023-03-01T06:14:02;22.53;;;14.33;;
6626;SDS011;3349;49.830;8.748;2023-03-01T06:16:29;21.03;;;13.30;;
6626;SDS011;3349;49.830;8.748;2023-03-01T06:18:56;23.13;;;13.87;;
6626;SDS011;3349;49.830;8.748;2023-03-01T06:21:23;22.57;;;14.00;;
6626;SDS011;3349;49.830;8.748;2023-03-01T06:23:51;24.27;;;15.43;;
6626;SDS011;3349;49.830;8.748;2023-03-01T06:26:17;24.90;;;14.20;;
6626;SDS011;3349;49.830;8.748;2023-03-01T06:28:44;23.07;;;14.03;;
6626;SDS011;3349;49.830;8.748;2023-03-01T06:31:11;22.37;;;14.30;;
6626;SDS011;3349;49.830;8.748;2023-03-01T06:33:38;25.43;;;13.73;;
6626;SDS011;3349;49.830;8.748;2023-03-01T06:36:05;21.97;;;14.60;;
6626;SDS011;3349;49.830;8.748;2023-03-01T06:38:32;22.33;;;13.67;;
6626;SDS011;3349;49.830;8.748;2023-03-01T06:41:00;25.00;;;14.80;;
6626;SDS011;3349;49.830;8.748;2023-03-01T06:43:27;24.63;;;14.70;;
6626;SDS011;3349;49.830;8.748;2023-03-01T06:45:54;23.13;;;14.53;;
6626;SDS011;3349;49.830;8.748;2023-03-01T06:48:22;23.60;;;14.97;;
6626;SDS011;3349;49.830;8.748;2023-03-01T06:50:48;23.67;;;14.77;;
6626;SDS011;3349;49.830;8.748;2023-03-01T06:53:15;26.57;;;15.97;;
6626;SDS011;3349;49.830;8.748;2023-03-01T06:55:42;27.87;;;15.37;;
6626;SDS011;3349;49.830;8.748;2023-03-01T06:58:10;27.40;;;15.60;;
6626;SDS011;3349;49.830;8.748;2023-03-01T07:00:37;26.17;;;15.97;;
6626;SDS011;3349;49.830;8.748;2023-03-01T07:03:08;24.70;;;15.57;;
6626;SDS011;3349;49.830;8.748;2023-03-01T07:05:35;22.53;;;14.07;;
6626;SDS011;3349;49.830;8.748;2023-03-01T07:08:01;22.93;;;15.33;;
6626;SDS011;3349;49.830;8.748;2023-03-01T07:10:28;22.47;;;13.93;;
6626;SDS011;3349;49.830;8.748;2023-03-01T07:12:55;25.43;;;15.30;;
6626;SDS011;3349;49.830;8.748;2023-03-01T07:15:25;23.37;;;15.13;;
6626;SDS011;3349;49.830;8.748;2023-03-01T07:17:53;25.67;;;14.13;;
6626;SDS011;3349;49.830;8.748;2023-03-01T07:20:20;21.27;;;13.90;;
6626;SDS011;3349;49.830;8.748;2023-03-01T07:22:49;21.17;;;14.00;;
6626;SDS011;3349;49.830;8.748;2023-03-01T07:25:16;22.60;;;15.30;;
6626;SDS011;3349;49.830;8.748;2023-03-01T07:27:43;21.57;;;13.60;;
6626;SDS011;3349;49.830;8.748;2023-03-01T07:30:10;22.67;;;14.23;;
6626;SDS011;3349;49.830;8.748;2023-03-01T07:32:38;21.20;;;13.20;;
6626;SDS011;3349;49.830;8.748;2023-03-01T07:35:05;18.80;;;13.53;;
6626;SDS011;3349;49.830;8.748;2023-03-01T07:37:33;19.90;;;13.83;;
6626;SDS011;3349;49.830;8.748;2023-03-01T07:39:59;25.17;;;14.63;;
6626;SDS011;3349;49.830;8.748;2023-03-01T07:42:26;20.97;;;13.80;;
6626;SDS011;3349;49.830;8.748;2023-03-01T07:44:53;20.07;;;14.00;;
6626;SDS011;3349;49.830;8.748;2023-03-01T07:47:19;21.83;;;14.40;;
6626;SDS011;3349;49.830;8.748;2023-03-01T07:49:47;21.57;;;14.53;;
6626;SDS011;3349;49.830;8.748;2023-03-01T07:52:14;20.85;;;13.55;;
6626;SDS011;3349;49.830;8.748;2023-03-01T07:54:42;20.50;;;13.73;;
6626;SDS011;3349;49.830;8.748;2023-03-01T07:57:09;20.60;;;13.07;;
6626;SDS011;3349;49.830;8.748;2023-03-01T07:59:36;19.73;;;13.43;;
6626;SDS011;3349;49.830;8.748;2023-03-01T08:02:03;20.60;;;13.05;;
6626;SDS011;3349;49.830;8.748;2023-03-01T08:04:30;25.03;;;14.93;;
6626;SDS011;3349;49.830;8.748;2023-03-01T08:06:59;21.73;;;13.97;;
6626;SDS011;3349;49.830;8.748;2023-03-01T08:09:26;25.13;;;15.97;;
6626;SDS011;3349;49.830;8.748;2023-03-01T08:11:52;25.90;;;16.27;;
6626;SDS011;3349;49.830;8.748;2023-03-01T08:14:20;19.60;;;14.57;;
6626;SDS011;3349;49.830;8.748;2023-03-01T08:16:48;21.80;;;14.47;;
6626;SDS011;3349;49.830;8.748;2023-03-01T08:19:16;20.83;;;12.88;;
6626;SDS011;3349;49.830;8.748;2023-03-01T08:21:43;25.13;;;16.67;;
6626;SDS011;3349;49.830;8.748;2023-03-01T08:24:11;24.75;;;15.88;;
6626;SDS011;3349;49.830;8.748;2023-03-01T08:26:38;24.05;;;16.00;;
6626;SDS011;3349;49.830;8.748;2023-03-01T08:29:04;25.17;;;17.33;;
6626;SDS011;3349;49.830;8.748;2023-03-01T08:31:32;22.58;;;14.93;;
6626;SDS011;3349;49.830;8.748;2023-03-01T08:34:02;23.52;;;15.77;;
6626;SDS011;3349;49.830;8.748;2023-03-01T08:36:32;24.02;;;15.10;;
6626;SDS011;3349;49.830;8.748;2023-03-01T08:39:00;20.17;;;14.60;;
6626;SDS011;3349;49.830;8.748;2023-03-01T08:41:28;19.67;;;13.83;;
6626;SDS011;3349;49.830;8.748;2023-03-01T08:43:55;22.47;;;14.83;;
6626;SDS011;3349;49.830;8.748;2023-03-01T08:46:24;23.07;;;15.27;;
6626;SDS011;3349;49.830;8.748;2023-03-01T08:48:52;20.55;;;14.18;;
6626;SDS011;3349;49.830;8.748;2023-03-01T08:51:19;24.30;;;15.02;;
6626;SDS011;3349;49.830;8.748;2023-03-01T08:53:47;21.63;;;14.32;;
6626;SDS011;3349;49.830;8.748;2023-03-01T08:56:14;22.45;;;13.18;;
6626;SDS011;3349;49.830;8.748;2023-03-01T08:58:44;22.17;;;14.15;;
6626;SDS011;3349;49.830;8.748;2023-03-01T09:01:12;20.25;;;14.23;;
6626;SDS011;3349;49.830;8.748;2023-03-01T09:03:41;21.15;;;13.65;;
6626;SDS011;3349;49.830;8.748;2023-03-01T09:06:08;19.52;;;13.52;;
6626;SDS011;3349;49.830;8.748;2023-03-01T09:08:35;22.48;;;14.52;;
6626;SDS011;3349;49.830;8.748;2023-03-01T09:11:03;22.85;;;15.27;;
6626;SDS011;3349;49.830;8.748;2023-03-01T09:13:30;23.50;;;14.25;;
6626;SDS011;3349;49.830;8.748;2023-03-01T09:15:59;22.58;;;14.25;;
6626;SDS011;3349;49.830;8.748;2023-03-01T09:18:28;21.35;;;14.02;;
6626;SDS011;3349;49.830;8.748;2023-03-01T09:21:00;22.83;;;13.50;;
6626;SDS011;3349;49.830;8.748;2023-03-01T09:23:32;21.67;;;14.50;;
6626;SDS011;3349;49.830;8.748;2023-03-01T09:26:01;21.95;;;15.48;;
6626;SDS011;3349;49.830;8.748;2023-03-01T09:28:28;22.58;;;15.57;;
6626;SDS011;3349;49.830;8.748;2023-03-01T09:30:58;24.25;;;15.63;;
6626;SDS011;3349;49.830;8.748;2023-03-01T09:33:25;28.48;;;16.63;;
6626;SDS011;3349;49.830;8.748;2023-03-01T09:35:55;27.42;;;18.60;;
6626;SDS011;3349;49.830;8.748;2023-03-01T09:38:23;29.48;;;17.63;;
6626;SDS011;3349;49.830;8.748;2023-03-01T09:40:49;24.30;;;16.65;;
6626;SDS011;3349;49.830;8.748;2023-03-01T09:43:18;22.85;;;15.40;;
6626;SDS011;3349;49.830;8.748;2023-03-01T09:45:49;21.27;;;14.50;;
6626;SDS011;3349;49.830;8.748;2023-03-01T09:48:21;23.15;;;14.68;;
6626;SDS011;3349;49.830;8.748;2023-03-01T09:50:52;22.33;;;15.32;;
6626;SDS011;3349;49.830;8.748;2023-03-01T09:53:20;22.73;;;15.30;;
6626;SDS011;3349;49.830;8.748;2023-03-01T09:55:48;23.70;;;14.73;;
6626;SDS011;3349;49.830;8.748;2023-03-01T09:58:32;20.85;;;14.18;;
6626;SDS011;3349;49.830;8.748;2023-03-01T10:01:10;22.40;;;15.75;;
6626;SDS011;3349;49.830;8.748;2023-03-01T10:03:52;22.67;;;15.93;;
6626;SDS011;3349;49.830;8.748;2023-03-01T10:06:28;24.15;;;16.15;;
6626;SDS011;3349;49.830;8.748;2023-03-01T10:08:55;23.85;;;16.05;;
6626;SDS011;3349;49.830;8.748;2023-03-01T10:11:26;23.08;;;15.90;;
6626;SDS011;3349;49.830;8.748;2023-03-01T10:13:57;26.33;;;18.13;;
6626;SDS011;3349;49.830;8.748;2023-03-01T10:16:32;24.80;;;16.70;;
6626;SDS011;3349;49.830;8.748;2023-03-01T10:19:09;21.88;;;15.70;;
6626;SDS011;3349;49.830;8.748;2023-03-01T10:21:43;21.85;;;15.48;;
6626;SDS011;3349;49.830;8.748;2023-03-01T10:24:12;21.88;;;17.38;;
6626;SDS011;3349;49.830;8.748;2023-03-01T10:26:44;28.08;;;18.20;;
6626;SDS011;3349;49.830;8.748;2023-03-01T10:29:17;26.77;;;17.77;;
6626;SDS011;3349;49.830;8.748;2023-03-01T10:31:50;24.65;;;18.80;;
6626;SDS011;3349;49.830;8.748;2023-03-01T10:34:20;28.90;;;18.38;;
6626;SDS011;3349;49.830;8.748;2023-03-01T10:36:54;25.63;;;17.88;;
6626;SDS011;3349;49.830;8.748;2023-03-01T10:39:23;22.75;;;18.50;;
6626;SDS011;3349;49.830;8.748;2023-03-01T10:41:53;22.08;;;17.73;;
6626;SDS011;3349;49.830;8.748;2023-03-01T10:44:34;20.25;;;17.10;;
6626;SDS011;3349;49.830;8.748;2023-03-01T10:47:09;21.83;;;17.23;;
6626;SDS011;3349;49.830;8.748;2023-03-01T10:49:54;23.23;;;17.58;;
6626;SDS011;3349;49.830;8.748;2023-03-01T10:52:28;22.50;;;17.73;;
6626;SDS011;3349;49.830;8.748;2023-03-01T10:54:58;20.05;;;15.85;;
6626;SDS011;3349;49.830;8.748;2023-03-01T10:57:36;24.55;;;18.27;;
6626;SDS011;3349;49.830;8.748;2023-03-01T11:00:14;20.05;;;16.75;;
6626;SDS011;3349;49.830;8.748;2023-03-01T11:02:45;20.45;;;17.33;;
6626;SDS011;3349;49.830;8.748;2023-03-01T11:05:19;21.95;;;16.98;;
6626;SDS011;3349;49.830;8.748;2023-03-01T11:07:50;22.42;;;16.52;;
6626;SDS011;3349;49.830;8.748;2023-03-01T11:10:19;20.67;;;15.63;;
6626;SDS011;3349;49.830;8.748;2023-03-01T11:12:48;20.25;;;16.42;;
6626;SDS011;3349;49.830;8.748;2023-03-01T11:15:24;19.90;;;16.60;;
6626;SDS011;3349;49.830;8.748;2023-03-01T11:17:53;19.58;;;15.77;;
6626;SDS011;3349;49.830;8.748;2023-03-01T11:20:31;20.00;;;17.08;;
6626;SDS011;3349;49.830;8.748;2023-03-01T11:23:01;21.23;;;18.38;;
6626;SDS011;3349;49.830;8.748;2023-03-01T11:25:32;19.33;;;17.38;;
6626;SDS011;3349;49.830;8.748;2023-03-01T11:28:01;18.95;;;17.05;;
6626;SDS011;3349;49.830;8.748;2023-03-01T11:30:31;19.48;;;17.48;;
6626;SDS011;3349;49.830;8.748;2023-03-01T11:33:03;18.50;;;16.58;;
6626;SDS011;3349;49.830;8.748;2023-03-01T11:35:42;19.17;;;17.17;;
6626;SDS011;3349;49.830;8.748;2023-03-01T11:38:20;18.98;;;17.08;;
6626;SDS011;3349;49.830;8.748;2023-03-01T11:40:49;18.95;;;17.00;;
6626;SDS011;3349;49.830;8.748;2023-03-01T11:43:26;20.05;;;17.95;;
6626;SDS011;3349;49.830;8.748;2023-03-01T11:46:02;17.33;;;15.65;;
6626;SDS011;3349;49.830;8.748;2023-03-01T11:48:51;18.10;;;16.30;;
6626;SDS011;3349;49.830;8.748;2023-03-01T11:51:33;19.63;;;16.33;;
6626;SDS011;3349;49.830;8.748;2023-03-01T11:54:13;17.92;;;16.15;;
6626;SDS011;3349;49.830;8.748;2023-03-01T11:56:48;18.02;;;16.10;;
6626;SDS011;3349;49.830;8.748;2023-03-01T12:08:32;17.48;;;15.77;;
6626;SDS011;3349;49.830;8.748;2023-03-01T12:11:04;16.77;;;15.07;;
6626;SDS011;3349;49.830;8.748;2023-03-01T12:19:42;17.13;;;15.32;;
6626;SDS011;3349;49.830;8.748;2023-03-01T12:22:29;16.92;;;15.23;;
6626;SDS011;3349;49.830;8.748;2023-03-01T12:25:07;16.65;;;14.93;;
6626;SDS011;3349;49.830;8.748;2023-03-01T12:30:43;14.80;;;13.30;;
6626;SDS011;3349;49.830;8.748;2023-03-01T12:33:22;16.92;;;13.32;;
6626;SDS011;3349;49.830;8.748;2023-03-01T12:36:04;16.88;;;13.73;;
6626;SDS011;3349;49.830;8.748;2023-03-01T12:38:59;16.48;;;14.50;;
6626;SDS011;3349;49.830;8.748;2023-03-01T12:41:43;17.25;;;15.13;;
6626;SDS011;3349;49.830;8.748;2023-03-01T12:44:26;16.58;;;14.35;;
6626;SDS011;3349;49.830;8.748;2023-03-01T12:47:11;17.00;;;13.98;;
6626;SDS011;3349;49.830;8.748;2023-03-01T12:49:47;15.88;;;14.20;;
6626;SDS011;3349;49.830;8.748;2023-03-01T12:52:21;15.57;;;13.73;;
6626;SDS011;3349;49.830;8.748;2023-03-01T12:54:52;14.90;;;13.18;;
6626;SDS011;3349;49.830;8.748;2023-03-01T12:57:24;14.52;;;12.13;;
6626;SDS011;3349;49.830;8.748;2023-03-01T13:00:05;14.70;;;11.77;;
6626;SDS011;3349;49.830;8.748;2023-03-01T13:02:47;14.57;;;11.48;;
6626;SDS011;3349;49.830;8.748;2023-03-01T13:05:26;16.70;;;12.20;;
6626;SDS011;3349;49.830;8.748;2023-03-01T13:08:07;15.60;;;12.45;;
6626;SDS011;3349;49.830;8.748;2023-03-01T13:10:43;16.83;;;11.55;;
6626;SDS011;3349;49.830;8.748;2023-03-01T13:13:18;16.00;;;11.90;;
6626;SDS011;3349;49.830;8.748;2023-03-01T13:15:46;16.90;;;12.05;;
6626;SDS011;3349;49.830;8.748;2023-03-01T13:18:29;14.30;;;11.48;;
6626;SDS011;3349;49.830;8.748;2023-03-01T13:20:57;15.98;;;10.77;;
6626;SDS011;3349;49.830;8.748;2023-03-01T13:23:30;16.65;;;11.05;;
6626;SDS011;3349;49.830;8.748;2023-03-01T13:26:00;16.50;;;11.98;;
6626;SDS011;3349;49.830;8.748;2023-03-01T13:34:39;13.98;;;10.32;;
6626;SDS011;3349;49.830;8.748;2023-03-01T13:37:10;16.30;;;11.00;;
6626;SDS011;3349;49.830;8.748;2023-03-01T13:39:46;14.40;;;9.88;;
6626;SDS011;3349;49.830;8.748;2023-03-01T13:45:24;14.98;;;9.95;;
6626;SDS011;3349;49.830;8.748;2023-03-01T13:48:08;14.02;;;10.35;;
6626;SDS011;3349;49.830;8.748;2023-03-01T13:50:38;12.27;;;9.30;;
6626;SDS011;3349;49.830;8.748;2023-03-01T13:53:14;16.88;;;12.07;;
6626;SDS011;3349;49.830;8.748;2023-03-01T13:55:44;15.50;;;9.57;;
6626;SDS011;3349;49.830;8.748;2023-03-01T13:58:15;12.57;;;9.35;;
6626;SDS011;3349;49.830;8.748;2023-03-01T14:00:54;13.00;;;9.13;;
6626;SDS011;3349;49.830;8.748;2023-03-01T14:03:22;12.32;;;9.02;;
6626;SDS011;3349;49.830;8.748;2023-03-01T14:06:05;13.73;;;9.43;;
6626;SDS011;3349;49.830;8.748;2023-03-01T14:08:33;12.32;;;9.10;;
6626;SDS011;3349;49.830;8.748;2023-03-01T14:11:08;15.30;;;9.15;;
6626;SDS011;3349;49.830;8.748;2023-03-01T14:14:19;14.50;;;10.10;;
6626;SDS011;3349;49.830;8.748;2023-03-01T14:16:59;11.93;;;9.27;;
6626;SDS011;3349;49.830;8.748;2023-03-01T14:19:35;13.88;;;8.18;;
6626;SDS011;3349;49.830;8.748;2023-03-01T14:22:05;15.05;;;8.60;;
6626;SDS011;3349;49.830;8.748;2023-03-01T14:24:49;11.45;;;8.45;;
6626;SDS011;3349;49.830;8.748;2023-03-01T14:27:18;15.13;;;9.55;;
6626;SDS011;3349;49.830;8.748;2023-03-01T14:29:53;12.50;;;8.60;;
6626;SDS011;3349;49.830;8.748;2023-03-01T14:32:23;20.25;;;12.93;;
6626;SDS011;3349;49.830;8.748;2023-03-01T14:34:52;16.20;;;8.55;;
6626;SDS011;3349;49.830;8.748;2023-03-01T14:37:20;12.80;;;9.57;;
6626;SDS011;3349;49.830;8.748;2023-03-01T14:39:48;15.00;;;9.10;;
6626;SDS011;3349;49.830;8.748;2023-03-01T14:42:16;12.55;;;8.75;;
6626;SDS011;3349;49.830;8.748;2023-03-01T14:44:46;12.80;;;9.25;;
6626;SDS011;3349;49.830;8.748;2023-03-01T14:47:16;10.57;;;8.38;;
6626;SDS011;3349;49.830;8.748;2023-03-01T14:49:50;14.45;;;9.02;;
6626;SDS011;3349;49.830;8.748;2023-03-01T14:52:24;13.27;;;9.98;;
6626;SDS011;3349;49.830;8.748;2023-03-01T14:54:59;12.27;;;9.43;;
6626;SDS011;3349;49.830;8.748;2023-03-01T14:57:28;16.92;;;12.48;;
6626;SDS011;3349;49.830;8.748;2023-03-01T14:59:55;17.20;;;13.05;;
6626;SDS011;3349;49.830;8.748;2023-03-01T15:02:25;21.15;;;14.55;;
6626;SDS011;3349;49.830;8.748;2023-03-01T15:04:56;18.23;;;11.82;;
6626;SDS011;3349;49.830;8.748;2023-03-01T15:07:27;14.40;;;10.93;;
6626;SDS011;3349;49.830;8.748;2023-03-01T15:09:56;17.70;;;11.05;;
6626;SDS011;3349;49.830;8.748;2023-03-01T15:12:24;15.43;;;10.77;;
6626;SDS011;3349;49.830;8.748;2023-03-01T15:15:08;22.23;;;13.60;;
6626;SDS011;3349;49.830;8.748;2023-03-01T15:17:50;16.23;;;11.80;;
6626;SDS011;3349;49.830;8.748;2023-03-01T15:20:22;17.00;;;12.13;;
6626;SDS011;3349;49.830;8.748;2023-03-01T15:22:52;16.60;;;11.03;;
6626;SDS011;3349;49.830;8.748;2023-03-01T15:25:21;16.45;;;10.95;;
6626;SDS011;3349;49.830;8.748;2023-03-01T15:27:50;17.17;;;12.45;;
6626;SDS011;3349;49.830;8.748;2023-03-01T15:30:19;19.08;;;12.63;;
6626;SDS011;3349;49.830;8.748;2023-03-01T15:32:48;16.13;;;10.38;;
6626;SDS011;3349;49.830;8.748;2023-03-01T15:35:38;16.48;;;12.13;;